Time;durP1;ratioP1;P1;durP2;ratioP2;P2;SDS_P1;SDS_P2;PMS_P1;PMS_P2;Temp;Humidity;BMP_temperature;BMP_pressure;BME280_temperature;BME280_humidity;BME280_pressure;Samples;Min_cycle;Max_cycle;Signal;HPM_P1;HPM_P2
2023/11/04 00:00:44;;;;;;;9.30;2.83;;;7.40;99.90;;;;;;5015010;28;20042;-63
2023/11/04 00:03:31;;;;;;;8.20;2.42;;;7.40;99.90;;;;;;5015133;28;20038;-63
2023/11/04 00:05:58;;;;;;;4.82;2.28;;;7.40;99.90;;;;;;5014960;28;20092;-63
2023/11/04 00:08:26;;;;;;;10.75;2.65;;;7.40;99.90;;;;;;5014819;28;20107;-63
2023/11/04 00:10:53;;;;;;;14.45;2.92;;;7.30;99.90;;;;;;5014782;28;20085;-63
2023/11/04 00:13:19;;;;;;;8.63;2.88;;;7.30;99.90;;;;;;5015049;28;20042;-57
2023/11/04 00:15:46;;;;;;;10.82;3.03;;;7.30;99.90;;;;;;5014870;28;20050;-57
2023/11/04 00:18:13;;;;;;;11.70;3.03;;;7.30;99.90;;;;;;4997154;28;20049;-56
2023/11/04 00:20:40;;;;;;;11.60;3.00;;;7.20;99.90;;;;;;5014719;28;20053;-56
2023/11/04 00:23:17;;;;;;;11.43;2.28;;;7.20;99.90;;;;;;4997110;28;20087;-56
2023/11/04 00:25:44;;;;;;;10.23;2.67;;;7.20;99.90;;;;;;5015031;28;20379;-57
2023/11/04 00:28:11;;;;;;;8.77;2.80;;;7.20;99.90;;;;;;5014364;28;20096;-62
2023/11/04 00:30:38;;;;;;;9.30;3.08;;;7.20;99.90;;;;;;4997091;28;20044;-62
2023/11/04 00:33:05;;;;;;;10.32;3.08;;;7.20;99.90;;;;;;5030071;28;20049;-63
2023/11/04 00:35:32;;;;;;;10.63;3.15;;;7.10;99.90;;;;;;5013822;28;20046;-62
2023/11/04 00:37:59;;;;;;;7.70;2.65;;;7.10;99.90;;;;;;5014251;28;20049;-58
2023/11/04 00:40:26;;;;;;;9.88;3.38;;;7.10;99.90;;;;;;4997039;28;20337;-57
2023/11/04 00:42:53;;;;;;;9.95;2.97;;;7.10;99.90;;;;;;5014483;28;20059;-57
2023/11/04 00:45:20;;;;;;;12.10;3.65;;;7.00;99.90;;;;;;4996863;28;20534;-57
2023/11/04 00:47:47;;;;;;;10.80;3.42;;;7.00;99.90;;;;;;5013934;28;20037;-54
2023/11/04 00:50:14;;;;;;;10.45;4.32;;;7.00;99.90;;;;;;5014610;28;20045;-56
2023/11/04 00:52:47;;;;;;;14.45;3.40;;;7.00;99.90;;;;;;5014622;28;20103;-57
2023/11/04 00:55:14;;;;;;;12.80;3.53;;;7.00;99.90;;;;;;5014787;28;20092;-58
2023/11/04 00:57:41;;;;;;;9.98;3.05;;;6.90;99.90;;;;;;5014020;28;20103;-57
2023/11/04 01:00:09;;;;;;;10.27;2.80;;;6.90;99.90;;;;;;5014285;28;20113;-55
2023/11/04 01:02:36;;;;;;;10.98;2.97;;;6.90;99.90;;;;;;4996671;28;20037;-56
2023/11/04 01:05:03;;;;;;;8.15;2.70;;;6.90;99.90;;;;;;5014440;28;20372;-57
2023/11/04 01:07:30;;;;;;;11.32;3.45;;;6.80;99.90;;;;;;5013928;28;20037;-56
2023/11/04 01:09:56;;;;;;;11.75;3.30;;;6.80;99.90;;;;;;5014264;28;20041;-56
2023/11/04 01:12:23;;;;;;;10.35;3.60;;;6.80;99.90;;;;;;5013652;28;20049;-57
2023/11/04 01:14:50;;;;;;;11.18;3.00;;;6.80;99.90;;;;;;4996147;28;20076;-56
2023/11/04 01:17:17;;;;;;;14.18;4.20;;;6.80;99.90;;;;;;5014212;28;20042;-55
2023/11/04 01:19:44;;;;;;;5.85;2.70;;;6.80;99.90;;;;;;4995924;28;20101;-57
2023/11/04 01:22:11;;;;;;;12.85;3.15;;;6.80;99.90;;;;;;4996622;28;20046;-58
2023/11/04 01:24:42;;;;;;;9.75;2.85;;;6.90;99.90;;;;;;5014000;28;20100;-55
2023/11/04 01:27:09;;;;;;;8.07;2.92;;;6.90;99.90;;;;;;4996218;28;20475;-57
2023/11/04 01:29:36;;;;;;;11.52;3.17;;;6.90;99.90;;;;;;4995970;28;20232;-57
2023/11/04 01:32:04;;;;;;;10.75;3.22;;;6.90;99.90;;;;;;5014030;28;20450;-56
2023/11/04 01:34:31;;;;;;;11.43;2.80;;;6.90;99.90;;;;;;5013565;28;20049;-55
2023/11/04 01:36:58;;;;;;;10.70;3.15;;;6.90;99.90;;;;;;4996566;28;20038;-63
2023/11/04 01:39:25;;;;;;;11.45;3.00;;;6.90;99.90;;;;;;5013080;28;20160;-63
2023/11/04 01:41:52;;;;;;;7.82;2.60;;;6.90;99.90;;;;;;5013858;28;20049;-63
2023/11/04 01:44:19;;;;;;;6.22;2.42;;;6.90;99.90;;;;;;5013941;28;20042;-63
2023/11/04 01:46:46;;;;;;;11.05;3.33;;;6.90;99.90;;;;;;4996566;28;20053;-63
2023/11/04 01:49:13;;;;;;;9.82;3.10;;;6.90;99.90;;;;;;5017923;28;20069;-63
2023/11/04 01:51:40;;;;;;;13.10;3.50;;;6.90;99.90;;;;;;4999879;28;20042;-63
2023/11/04 01:54:07;;;;;;;7.93;2.78;;;6.80;99.90;;;;;;5017514;28;20487;-63
2023/11/04 01:56:33;;;;;;;9.93;2.88;;;6.80;99.90;;;;;;5000085;28;20042;-63
2023/11/04 01:59:00;;;;;;;10.52;3.13;;;6.80;99.90;;;;;;4999858;28;20541;-63
2023/11/04 02:01:27;;;;;;;12.50;2.67;;;6.80;99.90;;;;;;4999779;28;20046;-63
2023/11/04 02:03:54;;;;;;;8.13;2.72;;;6.80;99.90;;;;;;4999809;28;20397;-63
2023/11/04 02:06:21;;;;;;;9.15;2.47;;;6.80;99.90;;;;;;5017058;28;20038;-63
2023/11/04 02:08:48;;;;;;;12.20;2.75;;;6.80;99.90;;;;;;4999309;28;20053;-63
2023/11/04 02:11:15;;;;;;;7.32;2.33;;;6.80;99.90;;;;;;5017132;28;20045;-63
2023/11/04 02:13:41;;;;;;;10.35;2.63;;;6.80;99.90;;;;;;5017003;28;20050;-63
2023/11/04 02:16:08;;;;;;;10.88;2.33;;;6.80;99.90;;;;;;5017608;28;20049;-64
2023/11/04 02:18:35;;;;;;;8.75;2.42;;;6.90;99.90;;;;;;4999455;28;20058;-63
2023/11/04 02:21:02;;;;;;;8.00;2.58;;;6.90;99.90;;;;;;4999293;28;20096;-56
2023/11/04 02:23:29;;;;;;;9.30;2.10;;;6.90;99.90;;;;;;5018078;28;20065;-52
2023/11/04 02:25:56;;;;;;;7.15;2.22;;;6.90;99.90;;;;;;5000342;28;20137;-51
2023/11/04 02:28:22;;;;;;;10.35;2.30;;;6.80;99.90;;;;;;5017303;28;20038;-55
2023/11/04 02:30:49;;;;;;;8.13;2.40;;;6.80;99.90;;;;;;4999289;28;20045;-53
2023/11/04 02:33:16;;;;;;;9.90;2.08;;;6.80;99.90;;;;;;5017773;28;20072;-56
2023/11/04 02:35:44;;;;;;;7.38;1.80;;;6.80;99.90;;;;;;5001530;28;20046;-52
2023/11/04 02:38:11;;;;;;;6.22;2.50;;;6.70;99.90;;;;;;5017959;28;20099;-53
2023/11/04 02:40:38;;;;;;;8.32;2.70;;;6.70;99.90;;;;;;5017810;28;20054;-56
2023/11/04 02:43:05;;;;;;;6.47;2.53;;;6.70;99.90;;;;;;5000364;28;20498;-56
2023/11/04 02:45:32;;;;;;;7.97;2.53;;;6.60;99.90;;;;;;5016543;28;20042;-56
2023/11/04 02:47:58;;;;;;;8.65;2.40;;;6.60;99.90;;;;;;4998799;28;20046;-57
2023/11/04 02:50:25;;;;;;;7.55;2.55;;;6.50;99.90;;;;;;4998654;28;20084;-56
2023/11/04 02:52:52;;;;;;;11.52;2.00;;;6.50;99.90;;;;;;4998637;28;20487;-54
2023/11/04 02:55:20;;;;;;;7.07;2.75;;;6.50;99.90;;;;;;5016052;28;20077;-56
2023/11/04 02:57:47;;;;;;;5.38;2.00;;;6.50;99.90;;;;;;5015873;28;20046;-58
2023/11/04 03:00:14;;;;;;;8.38;2.40;;;6.40;99.90;;;;;;5015404;28;20041;-57
2023/11/04 03:02:41;;;;;;;7.72;2.00;;;6.40;99.90;;;;;;5016267;28;20049;-57
2023/11/04 03:05:08;;;;;;;9.77;2.03;;;6.30;99.90;;;;;;5016124;28;20038;-56
2023/11/04 03:07:35;;;;;;;4.40;1.92;;;6.30;99.90;;;;;;5016130;28;20328;-57
2023/11/04 03:10:02;;;;;;;7.97;2.38;;;6.30;99.90;;;;;;5016034;28;20038;-57
2023/11/04 03:12:29;;;;;;;5.47;1.88;;;6.20;99.90;;;;;;5016247;28;20038;-56
2023/11/04 03:14:56;;;;;;;6.68;2.00;;;6.20;99.90;;;;;;4998627;28;20038;-56
2023/11/04 03:17:22;;;;;;;7.00;1.83;;;6.20;99.90;;;;;;5015585;28;20033;-56
2023/11/04 03:19:49;;;;;;;4.75;1.92;;;6.10;99.90;;;;;;5015669;28;20483;-56
2023/11/04 03:22:16;;;;;;;6.40;2.22;;;6.10;99.90;;;;;;5015678;28;20106;-55
2023/11/04 03:24:43;;;;;;;6.40;2.45;;;6.10;99.90;;;;;;4998547;28;20088;-55
2023/11/04 03:27:10;;;;;;;10.07;2.10;;;6.00;99.90;;;;;;4998506;28;20041;-57
2023/11/04 03:29:37;;;;;;;10.27;2.00;;;6.00;99.90;;;;;;5015384;28;20042;-55
2023/11/04 03:32:05;;;;;;;6.93;2.13;;;6.00;99.90;;;;;;5015574;28;20121;-56
2023/11/04 03:34:31;;;;;;;7.82;2.00;;;6.10;99.90;;;;;;5015782;28;20039;-57
2023/11/04 03:37:02;;;;;;;8.10;1.77;;;6.10;99.90;;;;;;4997819;28;20053;-57
2023/11/04 03:39:29;;;;;;;11.60;2.38;;;6.10;99.90;;;;;;5015614;28;20420;-56
2023/11/04 03:41:56;;;;;;;8.07;2.00;;;6.10;99.90;;;;;;5015685;28;20072;-57
2023/11/04 03:44:22;;;;;;;6.80;2.35;;;6.10;99.90;;;;;;5015493;28;20499;-58
2023/11/04 03:46:49;;;;;;;9.82;2.63;;;6.10;99.90;;;;;;4997663;28;20124;-56
2023/11/04 03:49:16;;;;;;;9.48;2.65;;;6.10;99.90;;;;;;4997489;28;20042;-56
2023/11/04 03:51:43;;;;;;;8.13;2.35;;;6.10;99.90;;;;;;5015736;28;20042;-57
2023/11/04 03:54:10;;;;;;;10.98;2.50;;;6.10;99.90;;;;;;5015600;28;20449;-58
2023/11/04 03:56:37;;;;;;;7.50;2.70;;;6.10;99.90;;;;;;5014863;28;20045;-57
2023/11/04 03:59:04;;;;;;;9.65;2.80;;;6.10;99.90;;;;;;5014860;28;20050;-57
2023/11/04 04:01:30;;;;;;;10.32;2.95;;;6.10;99.90;;;;;;5015481;28;20046;-57
2023/11/04 04:03:57;;;;;;;10.82;3.33;;;6.10;99.90;;;;;;5015258;28;20393;-56
2023/11/04 04:06:24;;;;;;;10.55;3.65;;;6.10;99.90;;;;;;5015056;28;20046;-57
2023/11/04 04:08:51;;;;;;;10.52;3.70;;;6.10;99.90;;;;;;4997401;28;20125;-57
2023/11/04 04:11:18;;;;;;;11.35;3.03;;;6.10;99.90;;;;;;5014457;28;20052;-56
2023/11/04 04:13:45;;;;;;;11.05;3.10;;;6.20;99.90;;;;;;5014970;28;20056;-57
2023/11/04 04:16:12;;;;;;;11.30;2.78;;;6.30;99.90;;;;;;5014866;28;20050;-56
2023/11/04 04:18:39;;;;;;;14.32;3.30;;;6.30;99.90;;;;;;5014874;28;20049;-56
2023/11/04 04:21:06;;;;;;;9.63;2.67;;;6.40;99.90;;;;;;5014994;28;20042;-58
2023/11/04 04:23:33;;;;;;;13.25;4.00;;;6.50;99.90;;;;;;5015152;28;20562;-58
2023/11/04 04:26:00;;;;;;;14.10;3.40;;;6.50;99.90;;;;;;5014649;28;20045;-57
2023/11/04 04:28:26;;;;;;;8.95;2.83;;;6.60;99.90;;;;;;5015224;28;20045;-57
2023/11/04 04:30:53;;;;;;;7.43;2.83;;;6.60;99.90;;;;;;5014919;28;20050;-57
2023/11/04 04:33:20;;;;;;;5.60;2.30;;;6.60;99.90;;;;;;5014602;28;20491;-58
2023/11/04 04:35:47;;;;;;;10.60;2.40;;;6.50;99.90;;;;;;5014868;28;20050;-57
2023/11/04 04:38:14;;;;;;;9.15;2.45;;;6.50;99.90;;;;;;5014305;28;20169;-57
2023/11/04 04:40:41;;;;;;;9.63;2.47;;;6.40;99.90;;;;;;5014237;28;20048;-58
2023/11/04 04:43:07;;;;;;;12.25;2.42;;;6.50;99.90;;;;;;4996642;28;20121;-55
2023/11/04 04:45:34;;;;;;;7.82;2.30;;;6.40;99.90;;;;;;5014342;28;20042;-57
2023/11/04 04:48:01;;;;;;;11.00;3.33;;;6.40;99.90;;;;;;4996802;28;20033;-58
2023/11/04 04:50:28;;;;;;;11.60;2.45;;;6.40;99.90;;;;;;5014846;28;20344;-54
2023/11/04 04:52:55;;;;;;;7.65;2.05;;;6.30;99.90;;;;;;5014313;28;20396;-54
2023/11/04 04:55:22;;;;;;;7.90;2.33;;;6.30;99.90;;;;;;5014255;28;20044;-57
2023/11/04 04:57:49;;;;;;;7.55;2.28;;;6.30;99.90;;;;;;5014164;28;20034;-57
2023/11/04 05:00:16;;;;;;;12.25;2.50;;;6.40;99.90;;;;;;5013793;28;20113;-58
2023/11/04 05:02:43;;;;;;;9.10;2.72;;;6.40;99.90;;;;;;5014219;28;20038;-55
2023/11/04 05:05:10;;;;;;;6.82;2.40;;;6.50;99.90;;;;;;5014167;28;20494;-57
2023/11/04 05:07:37;;;;;;;10.20;2.30;;;6.50;99.90;;;;;;5014285;28;20040;-56
2023/11/04 05:10:05;;;;;;;6.47;2.20;;;6.60;99.90;;;;;;5014295;28;20045;-57
2023/11/04 05:12:32;;;;;;;9.15;2.55;;;6.60;99.90;;;;;;5014059;28;20414;-58
2023/11/04 05:14:59;;;;;;;8.77;2.58;;;6.70;99.90;;;;;;5014008;28;20042;-54
2023/11/04 05:17:25;;;;;;;8.20;2.40;;;6.70;99.90;;;;;;5013840;28;20121;-54
2023/11/04 05:19:55;;;;;;;8.73;2.38;;;6.80;99.90;;;;;;5013478;28;20069;-57
2023/11/04 05:22:25;;;;;;;7.18;2.30;;;6.80;99.90;;;;;;5013466;28;20038;-56
2023/11/04 05:24:51;;;;;;;6.75;2.35;;;6.90;99.90;;;;;;5014180;28;20076;-54
2023/11/04 05:27:19;;;;;;;11.55;3.47;;;6.90;99.90;;;;;;5013905;28;20038;-56
2023/11/04 05:29:45;;;;;;;9.57;2.05;;;7.00;99.90;;;;;;4996253;28;20399;-57
2023/11/04 05:32:12;;;;;;;7.85;2.03;;;7.00;99.90;;;;;;5013943;28;20041;-57
2023/11/04 05:34:39;;;;;;;8.43;2.00;;;7.10;99.90;;;;;;5013821;28;20088;-55
2023/11/04 05:37:06;;;;;;;9.80;2.05;;;7.10;99.90;;;;;;5013424;28;20088;-56
2023/11/04 05:39:33;;;;;;;9.60;2.08;;;7.10;99.90;;;;;;5013665;28;20074;-56
2023/11/04 05:42:00;;;;;;;6.65;1.98;;;7.20;99.90;;;;;;4996101;28;20478;-57
2023/11/04 05:44:27;;;;;;;6.55;1.83;;;7.20;99.90;;;;;;5013991;28;20038;-56
2023/11/04 05:46:54;;;;;;;5.88;1.60;;;7.30;99.90;;;;;;5014016;28;20380;-57
2023/11/04 05:49:21;;;;;;;10.18;2.47;;;7.30;99.90;;;;;;5013901;28;20042;-55
2023/11/04 05:51:48;;;;;;;7.07;2.10;;;7.30;99.90;;;;;;5013738;28;20158;-56
2023/11/04 05:54:15;;;;;;;10.40;2.20;;;7.40;99.90;;;;;;5013420;28;20060;-58
2023/11/04 05:56:42;;;;;;;6.68;2.13;;;7.40;99.90;;;;;;5013498;28;20049;-56
2023/11/04 05:59:09;;;;;;;7.60;1.92;;;7.40;99.90;;;;;;5013569;28;20056;-58
2023/11/04 06:01:36;;;;;;;4.40;1.70;;;7.50;99.90;;;;;;5013237;28;20066;-57
2023/11/04 06:04:02;;;;;;;13.75;2.42;;;7.50;99.90;;;;;;5013781;28;20428;-56
2023/11/04 06:06:29;;;;;;;10.18;2.47;;;7.50;99.90;;;;;;4995933;28;20483;-54
2023/11/04 06:08:56;;;;;;;8.63;2.25;;;7.50;99.90;;;;;;5013458;28;20116;-57
2023/11/04 06:11:23;;;;;;;8.23;2.53;;;7.50;99.90;;;;;;5013734;28;20048;-62
2023/11/04 06:13:52;;;;;;;7.65;2.53;;;7.50;99.90;;;;;;5013933;28;20042;-63
2023/11/04 06:16:19;;;;;;;9.70;2.20;;;7.50;99.90;;;;;;5013640;28;20057;-62
2023/11/04 06:18:46;;;;;;;8.52;2.50;;;7.50;99.90;;;;;;5013458;28;20042;-62
2023/11/04 06:21:13;;;;;;;11.63;2.58;;;7.50;99.90;;;;;;5013455;28;20045;-63
2023/11/04 06:23:40;;;;;;;8.15;2.38;;;7.50;99.90;;;;;;5013673;28;20053;-63
2023/11/04 06:26:07;;;;;;;13.25;2.42;;;7.50;99.90;;;;;;5013096;28;20509;-57
2023/11/04 06:28:34;;;;;;;8.60;2.80;;;7.50;99.90;;;;;;5013151;28;20398;-57
2023/11/04 06:31:01;;;;;;;11.60;2.30;;;7.50;99.90;;;;;;5013510;28;20053;-56
2023/11/04 06:33:27;;;;;;;8.32;2.58;;;7.50;99.90;;;;;;5013671;28;20096;-57
2023/11/04 06:35:54;;;;;;;11.18;2.28;;;7.60;99.90;;;;;;5016841;28;20056;-58
2023/11/04 06:38:21;;;;;;;10.02;2.17;;;7.60;99.90;;;;;;5016351;28;20065;-58
2023/11/04 06:40:49;;;;;;;9.30;2.45;;;7.60;99.90;;;;;;5016766;28;20053;-56
2023/11/04 06:43:15;;;;;;;10.25;2.30;;;7.60;99.90;;;;;;4999442;28;20037;-56
2023/11/04 06:45:42;;;;;;;12.13;2.50;;;7.70;99.90;;;;;;5016478;28;20042;-56
2023/11/04 06:48:09;;;;;;;9.60;2.22;;;7.70;99.90;;;;;;5016759;28;20041;-54
2023/11/04 06:50:36;;;;;;;14.00;2.22;;;7.80;99.90;;;;;;5016955;28;20052;-56
2023/11/04 06:53:03;;;;;;;20.95;3.05;;;7.80;99.90;;;;;;5016643;28;20092;-56
2023/11/04 06:55:32;;;;;;;12.80;2.90;;;7.90;99.90;;;;;;5016822;28;20038;-55
2023/11/04 06:57:59;;;;;;;16.60;3.13;;;7.90;99.90;;;;;;4999149;28;20034;-58
2023/11/04 07:00:25;;;;;;;13.45;2.70;;;8.00;99.90;;;;;;5016664;28;20494;-57
2023/11/04 07:02:52;;;;;;;13.65;3.45;;;8.10;99.90;;;;;;5016775;28;20069;-58
2023/11/04 07:05:19;;;;;;;12.88;2.50;;;8.20;99.90;;;;;;5016443;28;20080;-58
2023/11/04 07:07:46;;;;;;;10.77;2.97;;;8.30;99.90;;;;;;4998664;28;20385;-58
2023/11/04 07:10:13;;;;;;;7.97;1.70;;;8.30;99.90;;;;;;5016006;28;20042;-57
2023/11/04 07:12:40;;;;;;;7.15;1.58;;;8.30;99.90;;;;;;5016519;28;20069;-63
2023/11/04 07:15:07;;;;;;;9.57;1.80;;;8.30;99.90;;;;;;5016507;28;20049;-63
2023/11/04 07:17:33;;;;;;;14.88;1.83;;;8.30;99.90;;;;;;5016083;28;20046;-63
2023/11/04 07:20:00;;;;;;;7.20;1.98;;;8.30;99.90;;;;;;5016170;28;20048;-62
2023/11/04 07:22:27;;;;;;;9.23;1.58;;;8.30;99.90;;;;;;5015929;28;20423;-56
2023/11/04 07:24:54;;;;;;;9.25;1.40;;;8.20;99.90;;;;;;5016083;28;20046;-57
2023/11/04 07:27:21;;;;;;;7.75;1.67;;;8.20;99.90;;;;;;5015956;28;20139;-58
2023/11/04 07:29:48;;;;;;;8.02;1.42;;;8.20;99.90;;;;;;5015939;28;20049;-58
2023/11/04 07:32:14;;;;;;;7.13;1.58;;;8.20;99.90;;;;;;5016131;28;20092;-55
2023/11/04 07:34:41;;;;;;;8.55;1.40;;;8.20;99.90;;;;;;5015675;28;20439;-58
2023/11/04 07:37:09;;;;;;;6.65;1.48;;;8.20;99.90;;;;;;5015570;28;20117;-56
2023/11/04 07:39:38;;;;;;;6.25;1.27;;;8.20;99.90;;;;;;5015481;28;20057;-57
2023/11/04 07:42:06;;;;;;;7.70;1.50;;;8.20;99.90;;;;;;5016230;28;20533;-56
2023/11/04 07:44:32;;;;;;;6.82;1.25;;;8.20;99.90;;;;;;5015888;28;20037;-55
2023/11/04 07:47:00;;;;;;;5.18;0.98;;;8.20;99.90;;;;;;5015723;28;20113;-63
2023/11/04 07:49:26;;;;;;;5.55;1.27;;;8.10;99.90;;;;;;5015714;28;20042;-63
2023/11/04 07:51:56;;;;;;;3.47;0.88;;;8.10;99.90;;;;;;5015805;28;20096;-63
2023/11/04 07:54:24;;;;;;;6.53;1.25;;;8.10;99.90;;;;;;4997893;28;20056;-63
2023/11/04 07:56:51;;;;;;;4.65;0.80;;;8.10;99.90;;;;;;5015280;28;20129;-63
2023/11/04 07:59:18;;;;;;;3.67;0.80;;;8.00;99.90;;;;;;5014994;28;20121;-63
2023/11/04 08:01:44;;;;;;;6.78;1.67;;;8.00;99.90;;;;;;5015337;28;20038;-63
2023/11/04 08:04:11;;;;;;;5.78;1.05;;;8.10;99.90;;;;;;4997532;28;20073;-63
2023/11/04 08:06:38;;;;;;;6.25;1.35;;;8.10;99.90;;;;;;5015085;28;20180;-63
2023/11/04 08:09:06;;;;;;;3.63;0.93;;;8.10;99.90;;;;;;5014951;28;20100;-55
2023/11/04 08:11:33;;;;;;;3.97;0.73;;;8.10;99.90;;;;;;5014979;28;20042;-58
2023/11/04 08:14:00;;;;;;;5.22;0.90;;;8.10;99.90;;;;;;5015000;28;20038;-55
2023/11/04 08:16:27;;;;;;;3.30;0.73;;;8.10;99.90;;;;;;5014561;28;20065;-56
2023/11/04 08:18:53;;;;;;;5.88;0.90;;;8.20;99.90;;;;;;5015067;28;20468;-57
2023/11/04 08:21:21;;;;;;;3.70;0.70;;;8.20;99.90;;;;;;5014977;28;20124;-58
2023/11/04 08:23:48;;;;;;;3.22;0.68;;;8.20;99.90;;;;;;5015072;28;20124;-58
2023/11/04 08:26:15;;;;;;;3.22;0.77;;;8.30;99.90;;;;;;4997031;28;20494;-58
2023/11/04 08:28:42;;;;;;;4.25;0.90;;;8.30;99.90;;;;;;5014349;28;20458;-55
2023/11/04 08:31:09;;;;;;;5.93;1.10;;;8.30;99.90;;;;;;5014638;28;20046;-56
2023/11/04 08:33:36;;;;;;;3.10;0.65;;;8.30;99.90;;;;;;5014928;28;20214;-63
2023/11/04 08:36:03;;;;;;;4.43;0.90;;;8.30;99.90;;;;;;5014658;28;20041;-64
2023/11/04 08:38:29;;;;;;;6.75;1.10;;;8.30;99.90;;;;;;5014312;28;20045;-62
2023/11/04 08:40:56;;;;;;;5.90;0.90;;;8.40;99.90;;;;;;5014272;28;20053;-62
2023/11/04 08:43:23;;;;;;;6.70;1.02;;;8.40;99.90;;;;;;5014119;28;20030;-62
2023/11/04 08:45:50;;;;;;;7.15;0.90;;;8.40;99.90;;;;;;5014378;28;20038;-62
2023/11/04 08:48:17;;;;;;;7.30;1.25;;;8.40;99.90;;;;;;5013928;28;20518;-62
2023/11/04 08:50:44;;;;;;;5.63;1.02;;;8.40;99.90;;;;;;5013838;28;20049;-62
2023/11/04 08:53:10;;;;;;;5.95;1.20;;;8.50;99.90;;;;;;5014199;28;20048;-62
2023/11/04 08:55:37;;;;;;;4.85;1.00;;;8.50;99.90;;;;;;5013851;28;20403;-55
2023/11/04 08:58:04;;;;;;;5.15;0.88;;;8.60;99.90;;;;;;5013984;28;20464;-54
2023/11/04 09:00:31;;;;;;;3.92;1.17;;;8.70;99.90;;;;;;5013635;28;20120;-50
2023/11/04 09:03:00;;;;;;;4.65;1.00;;;8.80;99.90;;;;;;5014130;28;20045;-50
2023/11/04 09:05:27;;;;;;;4.63;1.00;;;8.80;99.90;;;;;;5013771;28;20034;-52
2023/11/04 09:08:00;;;;;;;3.78;0.93;;;8.80;99.90;;;;;;5013681;28;20121;-62
2023/11/04 09:10:27;;;;;;;5.65;1.10;;;8.80;99.90;;;;;;5013470;28;20046;-62
2023/11/04 09:12:54;;;;;;;4.15;0.85;;;8.90;99.90;;;;;;5013473;28;20491;-62
2023/11/04 09:15:21;;;;;;;3.20;0.88;;;8.90;99.90;;;;;;5013921;28;20399;-62
2023/11/04 09:17:48;;;;;;;4.05;1.00;;;8.90;99.90;;;;;;5013449;28;20140;-62
2023/11/04 09:20:15;;;;;;;5.18;0.90;;;8.90;99.90;;;;;;5013496;28;20427;-62
2023/11/04 09:22:42;;;;;;;4.55;0.75;;;8.90;99.90;;;;;;5013330;28;20045;-63
2023/11/04 09:25:09;;;;;;;4.68;0.70;;;8.90;99.90;;;;;;5013283;28;20034;-62
2023/11/04 09:27:36;;;;;;;3.47;0.70;;;8.80;99.90;;;;;;4996049;28;20046;-62
2023/11/04 09:30:03;;;;;;;3.78;0.70;;;8.90;99.90;;;;;;5013086;28;20042;-62
2023/11/04 09:32:30;;;;;;;4.43;0.73;;;8.90;99.90;;;;;;5013302;28;20200;-62
2023/11/04 09:34:57;;;;;;;3.72;0.80;;;8.90;99.90;;;;;;5013306;28;20513;-62
2023/11/04 09:37:24;;;;;;;3.55;0.80;;;8.90;99.90;;;;;;5013060;28;20453;-62
2023/11/04 09:39:52;;;;;;;4.43;1.00;;;9.00;99.90;;;;;;5013321;28;20085;-62
2023/11/04 09:42:19;;;;;;;3.78;0.60;;;9.10;99.90;;;;;;5013219;28;20471;-57
2023/11/04 09:44:45;;;;;;;1.88;0.55;;;9.20;99.90;;;;;;5013545;28;20034;-62
2023/11/04 09:47:12;;;;;;;2.30;0.55;;;9.30;99.90;;;;;;5013355;28;20117;-61
2023/11/04 09:49:39;;;;;;;3.05;0.47;;;9.40;99.90;;;;;;5013265;28;20038;-56
2023/11/04 09:52:08;;;;;;;1.42;0.40;;;9.40;99.90;;;;;;5013441;28;20077;-57
2023/11/04 09:54:36;;;;;;;2.08;0.55;;;9.40;99.90;;;;;;4995986;28;20053;-58
2023/11/04 09:57:03;;;;;;;2.03;0.55;;;9.50;99.90;;;;;;5013653;28;20052;-55
2023/11/04 09:59:32;;;;;;;2.13;0.55;;;9.50;99.90;;;;;;5013310;28;20050;-54
2023/11/04 10:01:59;;;;;;;2.22;0.50;;;9.50;99.90;;;;;;5013100;28;20390;-61
2023/11/04 10:04:26;;;;;;;1.48;0.30;;;9.50;99.90;;;;;;4995741;28;20084;-61
2023/11/04 10:06:53;;;;;;;1.00;0.30;;;9.50;99.90;;;;;;5013459;28;20042;-62
2023/11/04 10:09:20;;;;;;;2.38;0.47;;;9.50;99.90;;;;;;5014611;28;20455;-54
2023/11/04 10:11:47;;;;;;;2.63;0.40;;;9.50;99.90;;;;;;5017448;28;20428;-61
2023/11/04 10:14:14;;;;;;;0.95;0.35;;;9.50;99.90;;;;;;5017168;28;20053;-57
2023/11/04 10:16:41;;;;;;;1.20;0.30;;;9.50;99.90;;;;;;5032167;28;20050;-57
2023/11/04 10:19:08;;;;;;;10.65;6.40;;;9.50;99.90;;;;;;5016852;28;20041;-61
2023/11/04 10:21:35;;;;;;;3.50;1.20;;;9.50;99.90;;;;;;5017252;28;20065;-62
2023/11/04 10:24:05;;;;;;;2.20;0.50;;;9.50;99.90;;;;;;5016533;28;20049;-53
2023/11/04 10:26:32;;;;;;;1.02;0.38;;;9.60;99.90;;;;;;5017288;28;20038;-55
2023/11/04 10:28:59;;;;;;;0.70;0.45;;;9.60;99.90;;;;;;5016469;28;20038;-62
2023/11/04 10:31:26;;;;;;;2.42;0.43;;;9.70;99.90;;;;;;5016619;28;20069;-55
2023/11/04 10:33:53;;;;;;;1.33;0.35;;;9.70;99.90;;;;;;5016619;28;20045;-62
2023/11/04 10:36:21;;;;;;;2.38;0.98;;;9.80;99.90;;;;;;5016625;28;20546;-57
2023/11/04 10:38:48;;;;;;;2.08;0.85;;;9.90;99.90;;;;;;5015991;28;20092;-62
2023/11/04 10:41:15;;;;;;;3.30;0.93;;;10.00;99.90;;;;;;5016583;28;20081;-62
2023/11/04 10:43:42;;;;;;;7.88;1.30;;;10.10;99.90;;;;;;4999033;28;20114;-62
2023/11/04 10:46:09;;;;;;;4.82;1.13;;;10.20;99.90;;;;;;5016680;28;20034;-62
2023/11/04 10:48:36;;;;;;;5.82;0.70;;;10.20;99.90;;;;;;5016606;28;20121;-57
2023/11/04 10:51:02;;;;;;;4.13;0.98;;;10.30;99.90;;;;;;5016240;28;20068;-55
2023/11/04 10:53:29;;;;;;;3.83;0.90;;;10.40;99.90;;;;;;5016456;28;20046;-62
2023/11/04 10:55:56;;;;;;;6.22;0.95;;;10.50;99.90;;;;;;5016473;28;20045;-63
2023/11/04 10:58:23;;;;;;;6.28;1.33;;;10.60;99.90;;;;;;5016180;28;20057;-62
2023/11/04 11:00:50;;;;;;;5.95;1.40;;;10.80;99.90;;;;;;4999055;28;20064;-63
2023/11/04 11:03:17;;;;;;;9.05;1.55;;;10.90;99.90;;;;;;5016275;28;20360;-62
2023/11/04 11:05:44;;;;;;;11.52;2.00;;;11.00;99.90;;;;;;5016055;28;20047;-62
2023/11/04 11:08:11;;;;;;;9.20;2.55;;;11.10;99.90;;;;;;5015997;28;20419;-57
2023/11/04 11:10:38;;;;;;;15.00;2.42;;;11.20;99.90;;;;;;5015669;28;20116;-55
2023/11/04 11:13:05;;;;;;;12.98;2.75;;;11.20;99.90;;;;;;4998735;28;20042;-56
2023/11/04 11:15:32;;;;;;;17.27;2.35;;;11.30;99.90;;;;;;5016094;28;20046;-56
2023/11/04 11:18:02;;;;;;;10.00;2.08;;;11.30;99.90;;;;;;5015771;28;20434;-56
2023/11/04 11:20:29;;;;;;;16.02;2.67;;;11.40;99.90;;;;;;4997833;28;20442;-56
2023/11/04 11:22:59;;;;;;;12.98;2.67;;;11.40;99.90;;;;;;5015644;28;20042;-56
2023/11/04 11:25:27;;;;;;;16.88;3.78;;;11.50;99.90;;;;;;5015909;28;20469;-55
2023/11/04 11:27:55;;;;;;;15.23;3.78;;;11.50;99.90;;;;;;4998322;28;20038;-55
2023/11/04 11:30:23;;;;;;;14.68;2.92;;;11.60;99.90;;;;;;5015639;28;20046;-56
2023/11/04 11:32:50;;;;;;;14.52;2.75;;;11.60;99.90;;;;;;5015379;28;20092;-57
2023/11/04 11:35:17;;;;;;;16.40;3.42;;;11.60;99.90;;;;;;5015494;28;20045;-57
2023/11/04 11:37:50;;;;;;;20.40;3.50;;;11.50;99.90;;;;;;5015159;28;20068;-57
2023/11/04 11:40:17;;;;;;;11.02;2.80;;;11.50;99.90;;;;;;4997710;28;20118;-57
2023/11/04 11:42:44;;;;;;;22.80;3.35;;;11.50;99.90;;;;;;5015500;28;20061;-57
2023/11/04 11:45:11;;;;;;;15.90;3.80;;;11.50;99.90;;;;;;5015303;28;20042;-57
2023/11/04 11:47:38;;;;;;;21.45;3.65;;;11.50;99.90;;;;;;5015661;28;20034;-57
2023/11/04 11:50:05;;;;;;;25.90;4.68;;;11.50;99.90;;;;;;5015797;28;20042;-57
2023/11/04 11:52:32;;;;;;;20.50;3.60;;;11.50;99.90;;;;;;5015489;28;20046;-57
2023/11/04 11:54:59;;;;;;;17.10;3.72;;;11.50;99.90;;;;;;5015526;28;20557;-57
2023/11/04 11:57:27;;;;;;;16.48;3.13;;;11.40;99.90;;;;;;5015295;28;20050;-56
2023/11/04 11:59:56;;;;;;;16.83;3.58;;;11.40;99.90;;;;;;5015272;28;20050;-62
2023/11/04 12:02:23;;;;;;;20.20;3.30;;;11.40;99.90;;;;;;4997381;28;20046;-62
2023/11/04 12:04:50;;;;;;;20.83;3.60;;;11.40;99.90;;;;;;5015203;28;20038;-63
2023/11/04 12:07:17;;;;;;;17.95;3.85;;;11.50;99.90;;;;;;5015143;28;20038;-63
2023/11/04 12:09:44;;;;;;;18.33;3.75;;;11.60;99.90;;;;;;5014920;28;20442;-63
2023/11/04 12:12:14;;;;;;;16.95;2.90;;;11.70;99.90;;;;;;5015497;28;20038;-62
2023/11/04 12:14:41;;;;;;;19.42;3.65;;;11.70;99.90;;;;;;5014966;28;20045;-62
2023/11/04 12:17:08;;;;;;;14.68;3.00;;;11.70;99.90;;;;;;5015214;28;20042;-62
2023/11/04 12:19:35;;;;;;;11.88;2.67;;;11.70;99.90;;;;;;5014671;28;20583;-62
2023/11/04 12:22:02;;;;;;;14.43;3.08;;;11.80;99.90;;;;;;5013784;28;20471;-62
2023/11/04 12:24:29;;;;;;;13.98;2.92;;;11.80;99.90;;;;;;5014528;28;20124;-63
2023/11/04 12:26:56;;;;;;;16.60;2.95;;;11.80;99.90;;;;;;5013902;28;20510;-55
2023/11/04 12:29:22;;;;;;;12.80;2.92;;;11.80;99.90;;;;;;5008755;28;20101;-62
2023/11/04 12:31:49;;;;;;;17.88;3.72;;;11.80;99.90;;;;;;5012370;28;20061;-62
2023/11/04 12:34:16;;;;;;;15.32;2.83;;;11.70;99.90;;;;;;5014891;28;20042;-63
2023/11/04 12:36:43;;;;;;;12.77;2.80;;;11.70;99.90;;;;;;4996065;28;20038;-63
2023/11/04 12:39:10;;;;;;;13.07;2.88;;;11.70;99.90;;;;;;5009416;28;20077;-63
2023/11/04 12:41:38;;;;;;;13.68;2.53;;;11.70;99.90;;;;;;5014246;28;20068;-63
2023/11/04 12:44:06;;;;;;;12.55;3.10;;;11.70;99.90;;;;;;5013358;28;20049;-63
2023/11/04 12:46:33;;;;;;;10.70;2.70;;;11.70;99.90;;;;;;5014180;28;20037;-63
2023/11/04 12:49:00;;;;;;;19.73;3.40;;;11.80;99.90;;;;;;5013314;28;20048;-63